Meteo Giornale » Osservazioni meteo Brasile » Campinas Aeroporto
ore: 18:00 - Osservazioni Meteo Campinas Aeroporto
Lat. 23° 0' S Lon. 47° 8' W Alt. 661 metri s.l.m.
31 °C
Molto Nuvoloso
Temp. 24 Ore
19 °C
32 °C
Nord
11.1 Km/h
Dew point 17 °C
Umidità 43 %
Visibilità 10 Km
Il sole sorge alle ore 06:19
Il sole tramonta alle ore 17:58
| Data e Ora | Cielo e Fenomeni | T °C | DP °C | Um. % | Pres. hPa | Vis. km | Vento km/h | |
|---|---|---|---|---|---|---|---|---|
| Oggi h: 18:00 | Molto Nuvoloso | 31 | 17 | 43 | 1009 | 10 | N 11.1 | |
| Oggi h: 17:00 | Poco Nuvoloso | 32 | 17 | 40 | 1010 | 10 | N 13 | |
| Oggi h: 16:00 | Poco Nuvoloso | 32 | 17 | 40 | 1010 | 10 | N/NO 29.6 | |
| Oggi h: 15:00 | Nuvoloso | 32 | 19 | 46 | 1010 | 10 | N 11.1 | |
| Oggi h: 14:00 | Sereno | 28 | 20 | 61 | 1012 | 10 | S 14.8 | |
| Oggi h: 13:00 | Poco Nuvoloso | 29 | 18 | 51 | 1013 | 10 | NO 11.1 | |
| Oggi h: 12:00 | Sereno | 28 | 19 | 58 | 1014 | 10 | NE 13 | |
| Oggi h: 11:00 | Sereno | 26 | 19 | 65 | 1015 | 10 | NE 13 | |
| Oggi h: 10:00 | Sereno | 24 | 18 | 69 | 1015 | 10 | E 11.1 | |
| Oggi h: 09:00 | Poco Nuvoloso | 22 | 19 | 83 | 1016 | 10 | E 13 | |
| Oggi h: 08:00 | Sereno | 20 | 18 | 88 | 1015 | 10 | E 14.8 | |
| Oggi h: 07:00 | Molto Nuvoloso | 19 | 18 | 93 | 1016 | 10 | E 13 | |
| Oggi h: 06:00 | Coperto | 19 | 18 | 93 | 1015 | 10 | SE 24 | |
| Oggi h: 05:30 | Pioggia | 19 | 18 | 93 | 1014 | 10 | E/SE 25.9 | |
| Oggi h: 05:05 | Temporale | 19 | 18 | 93 | 1017 | 10 | O 18.5 | |
| Oggi h: 05:00 | Temporale | 20 | 17 | 82 | 1017 | 10 | O/SO 18.5 | |
| Oggi h: 04:13 | Temporale nelle vicinanze | 21 | 17 | 77 | 1016 | 10 | SO 31.5 | |
| Oggi h: 04:00 | Temporale nelle vicinanze | 20 | 17 | 82 | 1014 | 10 | E 13 | |
| Oggi h: 03:00 | Sereno | 20 | 17 | 82 | 1014 | 10 | E 14.8 | |
| Oggi h: 02:00 | Sereno | 20 | 16 | 77 | 1015 | 10 | E 18.5 | |
| Oggi h: 01:00 | Sereno | 20 | 16 | 77 | 1016 | 10 | E/SE 22.2 | |
| Oggi h: 00:00 | Sereno | 20 | 16 | 77 | 1017 | 10 | E/SE 22.2 | |
| Ieri h: 23:00 | Sereno | 21 | 16 | 73 | 1017 | 10 | E/SE 29.6 | |
| Ieri h: 22:00 | Sereno | 21 | 16 | 73 | 1017 | 10 | SE 40.7 | |
| Ieri h: 21:00 | Sereno | 22 | 17 | 73 | 1017 | 10 | SE 46.3 | |
| Ieri h: 20:00 | Sereno | 24 | 18 | 69 | 1015 | 10 | E/SE 29.6 | |
| Ieri h: 19:00 | Sereno | 25 | 18 | 65 | 1014 | 10 | E/SE 24 | |



